createdAt,value
2022-10-14T00:01:23.647Z,8.18
2022-10-14T00:03:50.894Z,3.13
2022-10-14T00:06:22.298Z,4.53
2022-10-14T00:08:48.929Z,2.97
2022-10-14T00:11:17.828Z,3.45
2022-10-14T00:13:44.675Z,4.75
2022-10-14T00:16:19.051Z,3.58
2022-10-14T00:18:45.862Z,3.88
2022-10-14T00:21:12.643Z,7.05
2022-10-14T00:23:39.413Z,4.85
2022-10-14T00:26:06.278Z,4.50
2022-10-14T00:28:33.187Z,3.30
2022-10-14T00:31:00.756Z,4.15
2022-10-14T00:33:27.777Z,4.43
2022-10-14T00:35:58.663Z,3.35
2022-10-14T00:38:25.618Z,4.63
2022-10-14T00:40:52.566Z,3.10
2022-10-14T00:43:19.599Z,3.75
2022-10-14T00:45:46.250Z,3.72
2022-10-14T00:48:13.587Z,3.20
2022-10-14T00:50:42.179Z,3.67
2022-10-14T00:53:08.851Z,5.15
2022-10-14T00:55:35.420Z,2.35
2022-10-14T00:58:02.035Z,4.07
2022-10-14T01:00:28.805Z,2.78
2022-10-14T01:02:55.999Z,3.95
2022-10-14T01:05:23.115Z,4.82
2022-10-14T01:07:52.819Z,3.03
2022-10-14T01:10:25.518Z,4.55
2022-10-14T01:13:01.585Z,3.78
2022-10-14T01:15:35.753Z,3.65
2022-10-14T01:18:14.761Z,4.88
2022-10-14T01:20:50.321Z,3.97
2022-10-14T01:23:36.092Z,4.25
2022-10-14T01:26:26.008Z,5.85
2022-10-14T01:29:12.809Z,4.00
2022-10-14T01:31:43.103Z,7.35
2022-10-14T01:34:10.886Z,7.35
2022-10-14T01:36:42.898Z,5.05
2022-10-14T01:39:22.868Z,5.78
2022-10-14T01:41:55.413Z,6.65
2022-10-14T01:44:23.762Z,5.50
2022-10-14T01:46:52.765Z,3.80
2022-10-14T01:49:32.617Z,5.20
2022-10-14T01:52:27.643Z,5.35
2022-10-14T01:54:56.434Z,5.35
2022-10-14T01:57:25.522Z,5.35
2022-10-14T01:59:53.072Z,7.82
2022-10-14T02:02:20.168Z,4.55
2022-10-14T02:04:47.029Z,8.02
2022-10-14T02:07:13.534Z,4.25
2022-10-14T02:09:52.105Z,3.80
2022-10-14T02:12:39.029Z,4.47
2022-10-14T02:15:11.849Z,13.65
2022-10-14T02:17:43.646Z,3.20
2022-10-14T02:20:33.553Z,5.93
2022-10-14T02:23:08.724Z,4.13
2022-10-14T02:25:37.256Z,5.30
2022-10-14T02:28:04.550Z,3.03
2022-10-14T02:30:32.828Z,3.42
2022-10-14T02:33:00.239Z,4.78
2022-10-14T02:35:28.013Z,4.55
2022-10-14T02:37:55.869Z,2.97
2022-10-14T02:40:25.144Z,8.65
2022-10-14T02:42:51.723Z,4.10
2022-10-14T02:45:19.087Z,4.55
2022-10-14T02:47:45.629Z,4.43
2022-10-14T02:50:12.359Z,5.65
2022-10-14T02:52:38.911Z,5.47
2022-10-14T02:55:05.754Z,4.30
2022-10-14T02:57:32.302Z,3.40
2022-10-14T02:59:58.818Z,6.93
2022-10-14T03:02:25.348Z,3.47
2022-10-14T03:04:51.907Z,4.28
2022-10-14T03:07:18.429Z,3.58
2022-10-14T03:09:44.966Z,4.82
2022-10-14T03:12:11.553Z,5.82
2022-10-14T03:14:38.090Z,4.38
2022-10-14T03:17:04.733Z,3.35
2022-10-14T03:19:31.266Z,3.10
2022-10-14T03:21:57.839Z,3.95
2022-10-14T03:24:24.433Z,3.70
2022-10-14T03:26:50.999Z,3.53
2022-10-14T03:29:17.514Z,6.65
2022-10-14T03:31:44.160Z,6.38
2022-10-14T03:34:10.740Z,4.38
2022-10-14T03:36:37.303Z,5.53
2022-10-14T03:39:04.208Z,5.75
2022-10-14T03:41:30.776Z,5.20
2022-10-14T03:43:57.327Z,4.22
2022-10-14T03:46:23.898Z,7.47
2022-10-14T03:48:50.406Z,4.07
2022-10-14T03:51:17.318Z,4.47
2022-10-14T03:57:12.619Z,3.17
2022-10-14T03:59:39.076Z,6.70
2022-10-14T04:02:05.615Z,3.95
2022-10-14T04:04:32.264Z,6.47
2022-10-14T04:06:58.803Z,5.20
2022-10-14T04:09:27.466Z,3.80
2022-10-14T04:11:54.164Z,5.40
2022-10-14T04:14:20.663Z,4.22
2022-10-14T04:16:49.863Z,3.10
2022-10-14T04:19:16.714Z,2.58
2022-10-14T04:21:43.198Z,4.15
2022-10-14T04:24:10.011Z,3.90
2022-10-14T04:26:36.542Z,3.85
2022-10-14T04:29:03.079Z,2.50
2022-10-14T04:31:29.700Z,4.22
2022-10-14T04:33:56.183Z,2.90
2022-10-14T04:36:22.631Z,3.88
2022-10-14T04:38:49.251Z,3.50
2022-10-14T04:41:15.701Z,4.03
2022-10-14T04:43:42.158Z,7.72
2022-10-14T04:46:08.928Z,3.55
2022-10-14T04:48:35.396Z,4.55
2022-10-14T04:51:01.971Z,2.50
2022-10-14T04:53:28.515Z,1.75
2022-10-14T04:55:54.990Z,2.28
2022-10-14T04:58:21.490Z,3.88
2022-10-14T05:00:48.015Z,2.45
2022-10-14T05:03:14.467Z,3.53
2022-10-14T05:05:40.985Z,3.38
2022-10-14T05:08:08.016Z,1.70
2022-10-14T05:10:34.494Z,2.88
2022-10-14T05:13:01.481Z,2.85
2022-10-14T05:15:28.123Z,6.95
2022-10-14T05:17:54.593Z,5.15
2022-10-14T05:20:21.136Z,3.20
2022-10-14T05:22:47.596Z,4.28
2022-10-14T05:25:14.095Z,5.18
2022-10-14T05:27:40.599Z,4.05
2022-10-14T05:30:07.382Z,4.18
2022-10-14T05:32:33.854Z,4.65
2022-10-14T05:35:00.382Z,2.47
2022-10-14T05:37:26.903Z,1.23
2022-10-14T05:39:53.425Z,3.92
2022-10-14T05:42:20.050Z,2.03
2022-10-14T05:44:47.134Z,2.40
2022-10-14T05:47:13.639Z,2.33
2022-10-14T05:49:40.076Z,3.33
2022-10-14T05:52:06.814Z,5.05
2022-10-14T05:54:33.322Z,2.85
2022-10-14T05:56:59.784Z,4.13
2022-10-14T05:59:26.310Z,2.58
2022-10-14T06:01:52.767Z,4.32
2022-10-14T06:04:20.115Z,2.15
2022-10-14T06:06:46.839Z,5.20
2022-10-14T06:09:13.379Z,2.17
2022-10-14T06:11:39.855Z,4.18
2022-10-14T06:14:06.499Z,3.22
2022-10-14T06:16:33.142Z,4.70
2022-10-14T06:18:59.683Z,7.35
2022-10-14T06:21:26.328Z,8.02
2022-10-14T06:23:52.777Z,3.20
2022-10-14T06:26:19.380Z,9.35
2022-10-14T06:28:46.521Z,6.78
2022-10-14T06:31:13.098Z,5.53
2022-10-14T06:33:39.608Z,4.45
2022-10-14T06:36:07.219Z,7.75
2022-10-14T06:38:33.817Z,6.80
2022-10-14T06:41:00.408Z,6.32
2022-10-14T06:43:26.906Z,4.07
2022-10-14T06:45:56.471Z,7.45
2022-10-14T06:48:22.994Z,9.43
2022-10-14T06:50:49.434Z,7.50
2022-10-14T06:53:15.896Z,9.00
2022-10-14T06:55:42.382Z,4.00
2022-10-14T06:58:08.873Z,4.38
2022-10-14T07:00:35.479Z,7.20
2022-10-14T07:03:01.986Z,4.80
2022-10-14T07:05:28.636Z,7.05
2022-10-14T07:07:57.077Z,11.70
2022-10-14T07:10:23.776Z,11.02
2022-10-14T07:12:53.394Z,9.00
2022-10-14T07:15:19.998Z,6.38
2022-10-14T07:17:46.522Z,5.63
2022-10-14T07:20:13.263Z,5.13
2022-10-14T07:22:39.893Z,4.97
2022-10-14T07:25:06.747Z,5.20
2022-10-14T07:27:33.269Z,4.50
2022-10-14T07:29:59.992Z,6.65
2022-10-14T07:32:26.526Z,8.98
2022-10-14T07:34:53.088Z,5.53
2022-10-14T07:37:19.858Z,8.20
2022-10-14T07:39:46.553Z,7.88
2022-10-14T07:42:13.060Z,7.78
2022-10-14T07:44:51.609Z,14.63
2022-10-14T07:47:18.163Z,6.20
2022-10-14T07:49:44.690Z,6.82
2022-10-14T07:52:11.212Z,7.07
2022-10-14T07:54:37.721Z,11.52
2022-10-14T07:57:04.372Z,9.35
2022-10-14T07:59:30.865Z,11.15
2022-10-14T08:01:57.475Z,7.90
2022-10-14T08:04:24.448Z,10.93
2022-10-14T08:06:51.435Z,8.80
2022-10-14T08:09:18.864Z,9.48
2022-10-14T08:11:45.500Z,11.20
2022-10-14T08:14:12.374Z,6.65
2022-10-14T08:16:39.111Z,8.80
2022-10-14T08:19:12.586Z,9.70
2022-10-14T08:21:41.792Z,6.85
2022-10-14T08:24:08.531Z,9.10
2022-10-14T08:26:36.367Z,9.30
2022-10-14T08:29:05.225Z,10.65
2022-10-14T08:31:32.968Z,12.52
2022-10-14T08:33:59.894Z,8.45
2022-10-14T08:36:26.607Z,6.13
2022-10-14T08:38:54.126Z,6.13
2022-10-14T08:41:26.632Z,7.85
2022-10-14T08:44:13.341Z,7.82
2022-10-14T08:46:39.839Z,8.20
2022-10-14T08:49:12.212Z,7.10
2022-10-14T08:51:40.247Z,10.35
2022-10-14T08:54:10.651Z,7.18
2022-10-14T08:56:38.170Z,7.82
2022-10-14T08:59:11.516Z,7.70
2022-10-14T09:01:44.433Z,3.90
2022-10-14T09:04:13.875Z,3.15
2022-10-14T09:06:42.675Z,5.35
2022-10-14T09:09:12.925Z,5.72
2022-10-14T09:11:41.545Z,6.05
2022-10-14T09:14:09.886Z,6.43
2022-10-14T09:16:37.558Z,4.30
2022-10-14T09:19:12.884Z,4.10
2022-10-14T09:21:58.303Z,6.68
2022-10-14T09:24:35.878Z,5.25
2022-10-14T09:27:02.397Z,5.47
2022-10-14T09:29:30.751Z,5.28
2022-10-14T09:31:59.037Z,5.82
2022-10-14T09:34:36.716Z,5.28
2022-10-14T09:37:12.268Z,5.68
2022-10-14T09:39:40.664Z,6.18
2022-10-14T09:42:13.390Z,5.43
2022-10-14T09:44:39.882Z,6.18
2022-10-14T09:47:12.154Z,7.15
2022-10-14T09:49:45.830Z,3.00
2022-10-14T09:52:25.982Z,4.78
2022-10-14T09:54:56.865Z,6.00
2022-10-14T09:57:24.575Z,5.72
2022-10-14T10:00:00.660Z,11.18
2022-10-14T10:02:33.310Z,10.32
2022-10-14T10:05:11.782Z,7.90
2022-10-14T10:07:38.273Z,3.70
2022-10-14T10:10:17.532Z,7.53
2022-10-14T10:12:47.114Z,4.03
2022-10-14T10:15:18.275Z,5.70
2022-10-14T10:17:46.097Z,6.85
2022-10-14T10:20:17.154Z,8.13
2022-10-14T10:22:43.789Z,4.97
2022-10-14T10:25:10.296Z,5.82
2022-10-14T10:27:40.526Z,5.03
2022-10-14T10:30:20.351Z,5.35
2022-10-14T10:32:49.091Z,6.10
2022-10-14T10:35:18.498Z,6.65
2022-10-14T10:38:14.234Z,7.10
2022-10-14T10:40:47.589Z,8.32
2022-10-14T10:43:31.650Z,10.88
2022-10-14T10:46:09.929Z,5.18
2022-10-14T10:48:54.459Z,8.27
2022-10-14T10:51:38.760Z,6.90
2022-10-14T10:56:35.094Z,10.75
2022-10-14T10:59:20.540Z,5.28
2022-10-14T11:01:53.110Z,7.32
2022-10-14T11:04:32.776Z,5.57
2022-10-14T11:07:27.111Z,11.02
2022-10-14T11:10:24.513Z,8.48
2022-10-14T11:13:05.746Z,6.60
2022-10-14T11:15:41.130Z,6.85
2022-10-14T11:18:22.979Z,5.60
2022-10-14T11:20:55.389Z,10.05
2022-10-14T11:23:31.159Z,4.10
2022-10-14T11:26:04.091Z,8.82
2022-10-14T11:28:30.730Z,7.40
2022-10-14T11:31:03.705Z,9.23
2022-10-14T11:33:30.173Z,7.03
2022-10-14T11:36:14.322Z,5.45
2022-10-14T11:38:59.967Z,4.30
2022-10-14T11:41:46.097Z,4.63
2022-10-14T11:44:31.538Z,4.55
2022-10-14T11:47:00.062Z,4.13
2022-10-14T11:49:31.696Z,6.50
2022-10-14T11:51:58.151Z,14.30
2022-10-14T11:54:33.607Z,4.82
2022-10-14T11:57:00.062Z,8.93
2022-10-14T11:59:45.440Z,6.53
2022-10-14T12:02:21.756Z,3.38
2022-10-14T12:05:00.463Z,7.28
2022-10-14T12:07:29.842Z,6.25
2022-10-14T12:10:13.074Z,7.43
2022-10-14T12:12:40.660Z,6.50
2022-10-14T12:15:13.768Z,7.05
2022-10-14T12:17:52.382Z,8.27
2022-10-14T12:20:21.921Z,8.50
2022-10-14T12:22:48.786Z,5.35
2022-10-14T12:25:17.594Z,9.63
2022-10-14T12:27:44.363Z,9.38
2022-10-14T12:30:29.739Z,4.88
2022-10-14T12:33:00.966Z,5.18
2022-10-14T12:35:45.955Z,6.85
2022-10-14T12:38:12.608Z,11.43
2022-10-14T12:40:39.416Z,7.22
2022-10-14T12:43:17.307Z,8.18
2022-10-14T12:45:54.524Z,6.85
2022-10-14T12:48:22.311Z,4.70
2022-10-14T12:50:50.175Z,7.50
2022-10-14T12:53:24.597Z,10.23
2022-10-14T12:55:53.578Z,6.22
2022-10-14T12:58:23.481Z,8.18
2022-10-14T13:00:53.998Z,5.25
2022-10-14T13:03:23.770Z,6.82
2022-10-14T13:05:50.287Z,4.50
2022-10-14T13:08:19.482Z,5.38
2022-10-14T13:10:55.094Z,4.97
2022-10-14T13:13:48.005Z,5.90
2022-10-14T13:16:23.456Z,8.43
2022-10-14T13:18:53.843Z,6.15
2022-10-14T13:21:40.534Z,10.30
2022-10-14T13:24:16.174Z,8.65
2022-10-14T13:26:48.390Z,6.63
2022-10-14T13:29:20.967Z,8.88
2022-10-14T13:32:01.127Z,5.15
2022-10-14T13:34:34.823Z,7.07
2022-10-14T13:37:05.632Z,7.25
2022-10-14T13:39:33.433Z,9.95
2022-10-14T13:42:00.405Z,6.78
2022-10-14T13:44:27.635Z,7.13
2022-10-14T13:46:54.464Z,6.80
2022-10-14T13:49:23.775Z,6.70
2022-10-14T13:51:51.720Z,6.18
2022-10-14T13:54:22.658Z,10.90
2022-10-14T13:57:12.617Z,14.80
2022-10-14T14:00:22.571Z,6.13
2022-10-14T14:02:34.657Z,6.35
2022-10-14T14:05:01.578Z,7.20
2022-10-14T14:10:20.828Z,6.68
2022-10-14T14:12:47.566Z,7.53
2022-10-14T14:15:19.610Z,6.65
2022-10-14T14:17:46.099Z,9.52
2022-10-14T14:20:12.684Z,8.73
2022-10-14T14:22:43.701Z,9.20
2022-10-14T14:25:32.606Z,2.65
2022-10-14T14:28:02.357Z,3.92
2022-10-14T14:30:30.199Z,4.30
2022-10-14T14:32:58.852Z,3.97
2022-10-14T14:35:25.785Z,6.00
2022-10-14T14:37:56.018Z,7.32
2022-10-14T14:40:24.769Z,5.32
2022-10-14T14:42:56.249Z,7.20
2022-10-14T14:45:25.553Z,4.03
2022-10-14T14:47:53.659Z,9.02
2022-10-14T14:50:30.562Z,7.88
2022-10-14T14:53:00.767Z,5.43
2022-10-14T14:55:53.698Z,5.32
2022-10-14T14:58:20.369Z,4.07
2022-10-14T15:00:47.202Z,4.82
2022-10-14T15:03:13.720Z,6.28
2022-10-14T15:05:40.241Z,6.05
2022-10-14T15:08:15.437Z,1.88
2022-10-14T15:10:46.163Z,3.20
2022-10-14T15:13:24.359Z,1.75
2022-10-14T15:15:54.243Z,2.20
2022-10-14T15:18:24.510Z,2.78
2022-10-14T15:20:51.127Z,0.98
2022-10-14T15:23:36.253Z,1.73
2022-10-14T15:26:02.756Z,3.95
2022-10-14T15:28:33.059Z,2.20
2022-10-14T15:31:03.120Z,1.67
2022-10-14T15:33:32.181Z,0.95
2022-10-14T15:36:00.022Z,0.70
2022-10-14T15:38:26.819Z,0.90
2022-10-14T15:40:53.649Z,0.80
2022-10-14T15:43:21.361Z,1.35
2022-10-14T15:46:09.120Z,1.38
2022-10-14T15:48:36.745Z,2.50
2022-10-14T15:51:04.004Z,1.30
2022-10-14T15:53:30.497Z,3.95
2022-10-14T15:55:56.987Z,2.47
2022-10-14T15:58:23.738Z,1.90
2022-10-14T16:00:50.204Z,2.33
2022-10-14T16:03:17.813Z,1.63
2022-10-14T16:05:44.284Z,1.15
2022-10-14T16:08:12.275Z,0.85
2022-10-14T16:10:38.755Z,2.08
2022-10-14T16:13:05.313Z,1.52
2022-10-14T16:15:37.948Z,0.60
2022-10-14T16:18:04.587Z,0.85
2022-10-14T16:20:31.269Z,2.03
2022-10-14T16:22:58.405Z,1.67
2022-10-14T16:25:31.086Z,1.10
2022-10-14T16:27:57.983Z,1.90
2022-10-14T16:30:24.505Z,1.15
2022-10-14T16:32:51.201Z,1.63
2022-10-14T16:35:17.955Z,9.45
2022-10-14T16:37:44.409Z,3.10
2022-10-14T16:40:11.565Z,2.55
2022-10-14T16:42:38.190Z,1.80
2022-10-14T16:45:05.321Z,4.22
2022-10-14T16:47:31.854Z,2.15
2022-10-14T16:49:59.809Z,1.83
2022-10-14T16:52:26.603Z,1.33
2022-10-14T16:54:53.273Z,2.00
2022-10-14T16:57:19.784Z,1.83
2022-10-14T16:59:46.282Z,3.70
2022-10-14T17:02:16.540Z,1.50
2022-10-14T17:04:46.378Z,1.73
2022-10-14T17:07:14.831Z,2.00
2022-10-14T17:09:41.346Z,2.58
2022-10-14T17:12:13.023Z,2.60
2022-10-14T17:14:40.961Z,1.70
2022-10-14T17:17:07.518Z,3.35
2022-10-14T17:19:33.971Z,1.70
2022-10-14T17:22:02.371Z,2.70
2022-10-14T17:24:29.141Z,4.50
2022-10-14T17:26:56.002Z,3.45
2022-10-14T17:29:22.748Z,2.50
2022-10-14T17:31:49.234Z,2.63
2022-10-14T17:34:15.688Z,4.38
2022-10-14T17:36:42.219Z,3.97
2022-10-14T17:39:16.413Z,3.33
2022-10-14T17:41:47.888Z,3.95
2022-10-14T17:44:14.391Z,3.90
2022-10-14T17:46:40.892Z,5.40
2022-10-14T17:49:10.003Z,3.60
2022-10-14T17:51:37.244Z,4.22
2022-10-14T17:54:05.129Z,4.85
2022-10-14T17:56:32.736Z,7.00
2022-10-14T17:59:00.447Z,7.60
2022-10-14T18:01:37.342Z,7.78
2022-10-14T18:04:14.241Z,6.35
2022-10-14T18:06:43.188Z,6.45
2022-10-14T18:09:09.935Z,5.68
2022-10-14T18:12:07.094Z,6.07
2022-10-14T18:14:28.176Z,5.25
2022-10-14T18:16:54.672Z,5.55
2022-10-14T18:19:21.153Z,5.63
2022-10-14T18:21:48.170Z,9.82
2022-10-14T18:24:14.728Z,5.80
2022-10-14T18:26:41.473Z,6.75
2022-10-14T18:29:08.689Z,7.53
2022-10-14T18:31:35.566Z,7.88
2022-10-14T18:34:02.508Z,10.10
2022-10-14T18:36:30.090Z,32.47
2022-10-14T18:38:58.038Z,44.72
2022-10-14T18:41:24.897Z,26.98
2022-10-14T18:43:51.544Z,20.02
2022-10-14T18:46:21.938Z,12.40
2022-10-14T18:48:49.669Z,10.77
2022-10-14T18:51:17.114Z,8.65
2022-10-14T18:53:45.062Z,7.70
2022-10-14T18:56:15.919Z,15.18
2022-10-14T18:58:42.911Z,8.20
2022-10-14T19:01:11.170Z,10.07
2022-10-14T19:03:41.296Z,6.57
2022-10-14T19:06:11.871Z,7.07
2022-10-14T19:08:39.417Z,7.20
2022-10-14T19:11:20.308Z,3.00
2022-10-14T19:13:47.707Z,3.88
2022-10-14T19:16:25.016Z,2.60
2022-10-14T19:18:56.739Z,2.35
2022-10-14T19:21:26.514Z,2.05
2022-10-14T19:23:52.967Z,2.25
2022-10-14T19:26:20.894Z,2.85
2022-10-14T19:28:49.762Z,4.80
2022-10-14T19:31:18.086Z,4.10
2022-10-14T19:33:45.275Z,4.78
2022-10-14T19:36:13.019Z,3.70
2022-10-14T19:38:40.010Z,3.40
2022-10-14T19:41:07.930Z,5.18
2022-10-14T19:43:35.075Z,9.98
2022-10-14T19:46:08.708Z,5.43
2022-10-14T19:48:35.272Z,5.38
2022-10-14T19:51:06.221Z,7.15
2022-10-14T19:53:33.764Z,5.03
2022-10-14T19:56:07.712Z,4.97
2022-10-14T19:58:34.233Z,7.65
2022-10-14T20:01:21.062Z,4.03
2022-10-14T20:03:47.613Z,5.20
2022-10-14T20:06:14.354Z,5.72
2022-10-14T20:08:41.407Z,3.03
2022-10-14T20:11:09.042Z,5.25
2022-10-14T20:13:37.650Z,5.13
2022-10-14T20:16:04.853Z,7.75
2022-10-14T20:18:31.856Z,5.05
2022-10-14T20:20:58.399Z,3.90
2022-10-14T20:23:25.276Z,2.00
2022-10-14T20:25:51.869Z,3.40
2022-10-14T20:28:21.138Z,2.97
2022-10-14T20:30:48.088Z,3.72
2022-10-14T20:33:14.891Z,2.03
2022-10-14T20:35:41.468Z,6.10
2022-10-14T20:38:07.999Z,3.67
2022-10-14T20:40:35.260Z,5.43
2022-10-14T20:43:02.035Z,8.45
2022-10-14T20:45:28.490Z,6.15
2022-10-14T20:47:54.968Z,10.13
2022-10-14T20:50:22.385Z,6.18
2022-10-14T20:52:49.299Z,5.57
2022-10-14T20:55:15.924Z,6.07
2022-10-14T20:57:42.513Z,5.22
2022-10-14T21:00:10.015Z,3.78
2022-10-14T21:02:36.697Z,3.10
2022-10-14T21:05:03.697Z,8.93
2022-10-14T21:07:30.161Z,10.25
2022-10-14T21:12:26.348Z,13.85
2022-10-14T21:14:53.011Z,8.30
2022-10-14T21:17:19.531Z,9.68
2022-10-14T21:19:47.689Z,5.00
2022-10-14T21:22:14.372Z,10.23
2022-10-14T21:24:43.835Z,4.35
2022-10-14T21:27:10.571Z,4.28
2022-10-14T21:29:37.241Z,3.35
2022-10-14T21:32:03.792Z,5.60
2022-10-14T21:34:30.316Z,5.68
2022-10-14T21:36:57.062Z,3.05
2022-10-14T21:39:24.359Z,5.18
2022-10-14T21:41:51.336Z,3.70
2022-10-14T21:44:19.801Z,5.88
2022-10-14T21:46:46.685Z,6.90
2022-10-14T21:49:13.370Z,5.40
2022-10-14T21:51:40.192Z,5.55
2022-10-14T21:54:07.036Z,14.40
2022-10-14T21:56:33.527Z,11.05
2022-10-14T21:59:00.004Z,7.50
2022-10-14T22:01:27.936Z,4.35
2022-10-14T22:03:55.872Z,4.63
2022-10-14T22:06:22.508Z,7.25
2022-10-14T22:08:50.199Z,3.35
2022-10-14T22:11:17.809Z,3.33
2022-10-14T22:13:44.279Z,3.13
2022-10-14T22:16:10.787Z,3.58
2022-10-14T22:18:37.495Z,5.75
2022-10-14T22:23:40.413Z,4.50
2022-10-14T22:26:08.306Z,5.97
2022-10-14T22:28:35.427Z,3.00
2022-10-14T22:31:05.238Z,3.35
2022-10-14T22:33:33.423Z,3.22
2022-10-14T22:36:09.187Z,2.38
2022-10-14T22:38:36.110Z,4.40
2022-10-14T22:41:03.561Z,3.97
2022-10-14T22:43:30.046Z,2.92
2022-10-14T22:46:04.083Z,6.25
2022-10-14T22:48:30.935Z,2.60
2022-10-14T22:51:01.852Z,5.13
2022-10-14T22:53:28.671Z,2.88
2022-10-14T22:55:55.526Z,6.40
2022-10-14T22:58:22.293Z,2.47
2022-10-14T23:00:48.814Z,2.97
2022-10-14T23:03:15.604Z,4.53
2022-10-14T23:05:42.080Z,5.05
2022-10-14T23:08:11.372Z,2.90
2022-10-14T23:10:38.627Z,3.22
2022-10-14T23:13:05.659Z,3.33
2022-10-14T23:15:35.182Z,5.18
2022-10-14T23:18:01.700Z,3.17
2022-10-14T23:20:28.198Z,1.80
2022-10-14T23:25:29.461Z,3.20
2022-10-14T23:27:56.167Z,3.88
2022-10-14T23:30:22.874Z,3.38
2022-10-14T23:32:52.197Z,6.25
2022-10-14T23:35:21.085Z,2.33
2022-10-14T23:37:47.784Z,3.58
2022-10-14T23:40:14.575Z,1.75
2022-10-14T23:42:42.070Z,6.90
2022-10-14T23:45:10.396Z,3.35
2022-10-14T23:47:37.063Z,4.97
2022-10-14T23:50:06.053Z,2.75
2022-10-14T23:52:32.744Z,1.52
2022-10-14T23:54:59.567Z,4.88
2022-10-14T23:57:26.522Z,4.10
2022-10-14T23:59:53.287Z,1.73
